Time;durP1;ratioP1;P1;durP2;ratioP2;P2;SDS_P1;SDS_P2;PMS_P1;PMS_P2;Temp;Humidity;BMP_temperature;BMP_pressure;BME280_temperature;BME280_humidity;BME280_pressure;Samples;Min_cycle;Max_cycle;Signal;HPM_P1;HPM_P2
2022/12/20 00:07:22;;;;;;;67.20;36.67;;;;;;;1.70;100.00;100856.44;21036491;28;20431;-72
2022/12/20 00:17:23;;;;;;;66.82;35.55;;;;;;;1.72;100.00;100839.28;21038238;28;20048;-71
2022/12/20 00:27:24;;;;;;;71.47;36.63;;;;;;;1.83;100.00;100844.75;21036518;28;20120;-73
2022/12/20 00:37:26;;;;;;;70.05;33.72;;;;;;;1.86;100.00;100843.94;21035104;28;20059;-73
2022/12/20 00:47:27;;;;;;;63.75;33.50;;;;;;;1.95;100.00;100846.78;21031616;28;20520;-72
2022/12/20 00:57:28;;;;;;;65.78;32.85;;;;;;;2.01;100.00;100836.59;21033684;28;20352;-73
2022/12/20 01:07:30;;;;;;;68.75;33.80;;;;;;;2.01;100.00;100836.59;21031187;28;20497;-70
2022/12/20 01:17:31;;;;;;;55.67;30.73;;;;;;;1.99;100.00;100826.25;21032122;28;20166;-71
2022/12/20 01:27:32;;;;;;;54.25;29.98;;;;;;;1.99;100.00;100822.78;20987851;28;20052;-72
2022/12/20 01:37:34;;;;;;;57.95;30.05;;;;;;;2.09;100.00;100816.16;21016952;28;20099;-74
2022/12/20 01:47:35;;;;;;;55.97;29.73;;;;;;;1.92;100.00;100816.59;21030001;28;20433;-72
2022/12/20 01:57:36;;;;;;;56.40;30.10;;;;;;;1.78;100.00;100808.50;21026567;28;20110;-73
2022/12/20 02:07:38;;;;;;;54.92;30.83;;;;;;;1.85;100.00;100798.31;21027023;28;20068;-72
2022/12/20 02:17:39;;;;;;;61.97;32.53;;;;;;;1.95;100.00;100789.97;21011699;28;20052;-72
2022/12/20 02:27:41;;;;;;;60.20;32.72;;;;;;;1.90;100.00;100766.63;21023885;28;20056;-74
2022/12/20 02:37:43;;;;;;;66.40;32.95;;;;;;;1.90;100.00;100745.97;21023370;28;20056;-73
2022/12/20 02:47:44;;;;;;;60.17;31.15;;;;;;;1.89;100.00;100764.00;21024923;28;20074;-74
2022/12/20 02:57:45;;;;;;;59.60;32.55;;;;;;;1.86;100.00;100743.25;21023006;28;20059;-72
2022/12/20 03:07:47;;;;;;;64.03;33.88;;;;;;;1.86;100.00;100751.88;21024223;28;20052;-72
2022/12/20 03:17:48;;;;;;;69.38;36.05;;;;;;;1.88;100.00;100745.06;21025993;28;20083;-72
2022/12/20 03:27:49;;;;;;;63.45;33.83;;;;;;;1.78;100.00;100746.53;21041216;28;20113;-73
2022/12/20 03:37:51;;;;;;;56.92;32.20;;;;;;;1.64;100.00;100732.41;21037773;28;20055;-73
2022/12/20 03:47:52;;;;;;;65.50;33.38;;;;;;;1.64;100.00;100737.56;21038086;28;20052;-73
2022/12/20 03:57:53;;;;;;;71.30;36.30;;;;;;;2.02;100.00;100722.16;21040802;28;20187;-73
2022/12/20 04:07:54;;;;;;;69.63;35.78;;;;;;;2.15;100.00;100711.25;20994474;28;20056;-72
2022/12/20 04:17:55;;;;;;;67.28;36.22;;;;;;;2.16;100.00;100702.69;21036092;28;20060;-73
2022/12/20 04:27:57;;;;;;;57.03;32.92;;;;;;;2.13;100.00;100681.94;21036321;28;20048;-73
2022/12/20 04:37:58;;;;;;;65.18;32.50;;;;;;;2.26;100.00;100683.97;21031929;28;20048;-74
2022/12/20 04:47:59;;;;;;;55.25;31.23;;;;;;;2.37;100.00;100673.00;21034375;28;20115;-73
2022/12/20 04:58:20;;;;;;;48.65;29.35;;;;;;;2.30;100.00;100680.63;21032604;28;20049;-73
2022/12/20 05:08:22;;;;;;;56.05;29.33;;;;;;;2.38;100.00;100698.00;21030119;28;20061;-74
2022/12/20 05:18:23;;;;;;;52.63;29.25;;;;;;;2.27;100.00;100667.63;21033690;28;20052;-73
2022/12/20 05:28:24;;;;;;;51.15;29.23;;;;;;;2.30;100.00;100672.88;21031572;28;20055;-74
2022/12/20 05:38:26;;;;;;;49.10;28.30;;;;;;;2.29;100.00;100676.28;21048928;22;20052;-69
2022/12/20 05:48:27;;;;;;;53.90;29.52;;;;;;;2.41;100.00;100667.94;21028164;28;20060;-69
2022/12/20 05:58:29;;;;;;;53.17;30.45;;;;;;;2.36;100.00;100654.03;21030945;28;20511;-67
2022/12/20 06:08:30;;;;;;;55.28;31.92;;;;;;;2.51;100.00;100664.69;21026722;28;20079;-66
2022/12/20 06:18:32;;;;;;;56.10;30.30;;;;;;;2.52;100.00;100655.22;21029703;28;20109;-67
2022/12/20 06:28:33;;;;;;;48.17;28.55;;;;;;;2.52;100.00;100658.69;21026514;28;20063;-67
2022/12/20 06:38:34;;;;;;;54.00;31.30;;;;;;;2.56;100.00;100657.03;21028848;28;20064;-68
2022/12/20 06:48:36;;;;;;;47.95;28.52;;;;;;;2.53;100.00;100626.81;21027910;28;20054;-69
2022/12/20 06:58:37;;;;;;;50.20;30.27;;;;;;;2.65;100.00;100636.56;21027027;28;20048;-66
2022/12/20 07:08:38;;;;;;;53.08;30.67;;;;;;;2.68;100.00;100641.78;21023700;28;20106;-66
2022/12/20 07:18:39;;;;;;;54.78;30.75;;;;;;;2.64;100.00;100615.84;21026615;28;20293;-66
2022/12/20 07:28:41;;;;;;;46.60;26.60;;;;;;;2.72;100.00;100648.75;21047147;28;20504;-66
2022/12/20 07:38:42;;;;;;;40.05;24.25;;;;;;;2.70;100.00;100640.09;21056392;28;20059;-66
2022/12/20 07:48:43;;;;;;;46.25;25.38;;;;;;;2.79;100.00;100611.84;21058628;28;20056;-66
2022/12/20 07:58:46;;;;;;;44.92;25.35;;;;;;;2.85;100.00;100602.47;21050819;28;20071;-66
2022/12/20 08:08:47;;;;;;;50.15;27.27;;;;;;;2.94;100.00;100598.31;21030355;28;20064;-66
2022/12/20 08:18:48;;;;;;;47.55;27.63;;;;;;;3.06;100.00;100595.06;21051044;28;20063;-66
2022/12/20 08:28:50;;;;;;;48.17;31.95;;;;;;;3.18;100.00;100584.97;21068476;28;20051;-66
2022/12/20 08:38:51;;;;;;;40.35;25.55;;;;;;;3.30;100.00;100579.97;21043832;28;20114;-66
2022/12/20 08:48:52;;;;;;;47.92;28.23;;;;;;;3.46;100.00;100572.47;21034189;28;20082;-65
2022/12/20 08:58:53;;;;;;;38.72;23.30;;;;;;;3.63;100.00;100560.66;21050914;28;20044;-66
2022/12/20 09:08:55;;;;;;;38.53;23.05;;;;;;;3.81;100.00;100560.06;21063113;28;20044;-66
2022/12/20 09:18:56;;;;;;;34.08;22.05;;;;;;;4.01;100.00;100568.09;21062584;28;20127;-66
2022/12/20 09:29:05;;;;;;;37.35;23.25;;;;;;;4.27;100.00;100571.91;21063807;28;20083;-66
2022/12/20 09:39:06;;;;;;;38.88;22.98;;;;;;;4.33;100.00;100560.75;21027762;28;20063;-66
2022/12/20 09:49:07;;;;;;;33.88;21.00;;;;;;;4.40;100.00;100553.91;21029127;28;20114;-66
2022/12/20 09:59:09;;;;;;;33.97;20.67;;;;;;;4.52;100.00;100559.25;21027740;28;20055;-66
2022/12/20 10:09:10;;;;;;;39.97;22.80;;;;;;;4.48;100.00;100532.41;21025737;28;20048;-66
2022/12/20 10:19:11;;;;;;;32.45;20.00;;;;;;;4.38;100.00;100536.59;21028208;28;20058;-66
2022/12/20 10:29:12;;;;;;;34.05;21.20;;;;;;;4.50;100.00;100537.59;21024041;28;20088;-66
2022/12/20 10:39:14;;;;;;;43.65;24.95;;;;;;;4.77;100.00;100521.47;21025616;28;20471;-67
2022/12/20 10:49:15;;;;;;;31.38;18.73;;;;;;;4.78;100.00;100505.91;21026254;28;20044;-66
2022/12/20 10:59:16;;;;;;;34.58;20.38;;;;;;;4.72;100.00;100495.47;21024882;28;20077;-66
2022/12/20 11:09:17;;;;;;;30.58;18.92;;;;;;;4.86;100.00;100470.53;21022966;28;20109;-66
2022/12/20 11:19:19;;;;;;;34.70;21.50;;;;;;;4.95;100.00;100448.13;21024883;28;20052;-67
2022/12/20 11:29:20;;;;;;;30.15;20.08;;;;;;;5.09;100.00;100449.09;21018572;28;20328;-66
2022/12/20 11:39:21;;;;;;;31.90;20.05;;;;;;;5.24;100.00;100445.75;21128116;22;20051;-75
2022/12/20 11:49:22;;;;;;;32.60;19.90;;;;;;;5.29;100.00;100429.31;21035172;28;20052;-75
2022/12/20 11:59:24;;;;;;;40.38;23.67;;;;;;;5.28;100.00;100421.53;21039340;28;20454;-74
2022/12/20 12:09:25;;;;;;;31.80;20.67;;;;;;;5.22;100.00;100403.31;21033205;28;20654;-74
2022/12/20 12:19:26;;;;;;;33.58;21.70;;;;;;;5.23;100.00;100403.34;21037351;28;20086;-74
2022/12/20 12:29:28;;;;;;;31.63;21.65;;;;;;;5.19;100.00;100380.81;21031496;28;20098;-74
2022/12/20 12:39:29;;;;;;;38.05;22.92;;;;;;;5.32;100.00;100345.41;21029955;28;20064;-74
2022/12/20 12:49:30;;;;;;;33.22;21.58;;;;;;;5.39;100.00;100337.66;21064611;22;20055;-82
2022/12/20 12:59:32;;;;;;;40.60;24.20;;;;;;;5.39;100.00;100327.25;21081986;28;20059;-86
2022/12/20 13:09:33;;;;;;;43.33;23.85;;;;;;;5.46;100.00;100327.28;21038556;28;20131;-83
2022/12/20 13:19:34;;;;;;;34.83;22.10;;;;;;;5.44;100.00;100321.22;21011323;28;20051;-83
2022/12/20 13:29:36;;;;;;;42.53;26.60;;;;;;;5.45;100.00;100316.03;21032148;28;20385;-83
2022/12/20 13:39:37;;;;;;;46.28;28.52;;;;;;;5.51;100.00;100294.41;20998357;28;20551;-84
2022/12/20 13:49:38;;;;;;;47.63;32.80;;;;;;;5.48;100.00;100295.28;20983435;28;20049;-82
2022/12/20 13:59:40;;;;;;;40.88;27.48;;;;;;;5.45;100.00;100286.59;21038200;28;20053;-83
2022/12/20 14:09:41;;;;;;;43.05;27.45;;;;;;;5.42;100.00;100297.00;21031437;23;20121;-75
2022/12/20 14:19:42;;;;;;;49.38;29.33;;;;;;;5.47;100.00;100279.69;21027092;28;20109;-75
2022/12/20 14:29:43;;;;;;;43.13;26.42;;;;;;;5.49;100.00;100286.63;21027110;28;20418;-75
2022/12/20 14:39:45;;;;;;;43.13;28.00;;;;;;;5.44;100.00;100275.34;21018609;28;20150;-75
2022/12/20 14:49:46;;;;;;;37.17;23.58;;;;;;;5.39;100.00;100254.56;21021604;28;20550;-75
2022/12/20 14:59:48;;;;;;;45.95;28.58;;;;;;;5.34;100.00;100271.00;21023528;28;20052;-75
2022/12/20 15:09:49;;;;;;;40.70;25.48;;;;;;;5.30;100.00;100267.50;21024400;28;20048;-74
2022/12/20 15:19:50;;;;;;;55.38;29.77;;;;;;;5.35;100.00;100268.38;21038002;28;20091;-71
2022/12/20 15:29:51;;;;;;;43.65;26.73;;;;;;;5.32;100.00;100245.03;21040556;28;20794;-75
2022/12/20 15:39:54;;;;;;;44.60;28.55;;;;;;;5.16;100.00;100243.22;21044421;28;20439;-73
2022/12/20 15:49:55;;;;;;;38.88;23.52;;;;;;;5.27;100.00;100245.84;21037702;28;20139;-74
2022/12/20 15:59:56;;;;;;;36.88;21.65;;;;;;;5.24;100.00;100249.31;21035379;28;20064;-76
2022/12/20 16:10:01;;;;;;;39.97;22.02;;;;;;;5.27;100.00;100253.66;21037179;28;20179;-76
2022/12/20 16:20:03;;;;;;;35.35;20.73;;;;;;;5.26;100.00;100247.59;21036624;28;20151;-76
2022/12/20 16:30:04;;;;;;;39.00;22.55;;;;;;;5.29;100.00;100252.81;21034181;28;20102;-77
2022/12/20 16:40:06;;;;;;;33.70;20.48;;;;;;;5.25;100.00;100240.66;21034968;28;20055;-76
2022/12/20 16:50:08;;;;;;;37.17;21.25;;;;;;;5.24;100.00;100232.88;21035365;28;20059;-77
2022/12/20 17:00:09;;;;;;;38.35;23.15;;;;;;;5.21;100.00;100228.53;21034379;28;20059;-80
2022/12/20 17:10:10;;;;;;;40.47;24.15;;;;;;;5.11;100.00;100227.63;21050276;28;20052;-79
2022/12/20 17:20:12;;;;;;;36.25;22.65;;;;;;;4.98;100.00;100235.38;21034570;28;20056;-80
2022/12/20 17:30:13;;;;;;;37.42;23.95;;;;;;;4.97;100.00;100224.13;21028817;28;20056;-79
2022/12/20 17:40:14;;;;;;;48.33;28.08;;;;;;;4.96;100.00;100226.72;21028770;28;20060;-80
2022/12/20 17:50:16;;;;;;;50.97;30.52;;;;;;;5.01;100.00;100220.69;21026366;28;20492;-82
2022/12/20 18:00:18;;;;;;;53.03;32.47;;;;;;;4.97;100.00;100223.25;21027104;28;20093;-81
2022/12/20 18:10:19;;;;;;;50.30;32.40;;;;;;;4.93;100.00;100205.94;21014252;28;20488;-82
2022/12/20 18:20:20;;;;;;;52.47;34.22;;;;;;;5.06;100.00;100197.34;21033313;28;20058;-81
2022/12/20 18:30:22;;;;;;;54.08;34.70;;;;;;;5.01;100.00;100191.28;21054898;28;20067;-82
2022/12/20 18:40:23;;;;;;;56.63;37.20;;;;;;;5.04;100.00;100181.78;21052024;28;20425;-81
2022/12/20 18:50:26;;;;;;;49.83;30.55;;;;;;;5.00;100.00;100184.38;21042973;28;20057;-82
2022/12/20 19:00:28;;;;;;;48.13;30.77;;;;;;;4.99;100.00;100190.44;21033595;28;20054;-81
2022/12/20 19:10:29;;;;;;;46.50;28.55;;;;;;;5.04;100.00;100206.88;21017864;28;20114;-78
2022/12/20 19:20:30;;;;;;;70.13;40.58;;;;;;;5.00;100.00;100197.34;21018821;28;20056;-78
2022/12/20 19:30:31;;;;;;;63.53;37.55;;;;;;;5.01;100.00;100199.06;21015056;28;20114;-78
2022/12/20 19:51:17;;;;;;;82.85;42.72;;;;;;;5.15;100.00;100212.97;20987313;28;20469;-83
2022/12/20 20:01:18;;;;;;;79.53;45.00;;;;;;;5.14;100.00;100212.09;20962682;28;20058;-81
2022/12/20 20:11:20;;;;;;;50.35;31.80;;;;;;;5.24;100.00;100225.09;20918434;28;20397;-82
2022/12/20 20:21:21;;;;;;;44.78;27.48;;;;;;;5.29;100.00;100226.84;20920753;28;20115;-81
2022/12/20 20:31:23;;;;;;;44.55;24.90;;;;;;;5.28;100.00;100209.53;20908048;28;20052;-81
2022/12/20 20:41:26;;;;;;;36.15;22.90;;;;;;;5.25;100.00;100217.31;20973099;28;20064;-82
2022/12/20 20:51:29;;;;;;;39.40;24.27;;;;;;;5.29;100.00;100216.47;20955469;28;20064;-81
2022/12/20 21:01:30;;;;;;;38.72;25.00;;;;;;;5.33;100.00;100212.16;20931162;28;20063;-81
2022/12/20 21:11:32;;;;;;;42.33;26.40;;;;;;;5.36;100.00;100202.63;20904654;28;20049;-81
2022/12/20 21:21:34;;;;;;;49.35;28.15;;;;;;;5.33;100.00;100197.44;20836809;28;20041;-81
2022/12/20 21:31:35;;;;;;;42.05;25.92;;;;;;;5.35;100.00;100180.13;20894924;28;20611;-84
2022/12/20 21:41:36;;;;;;;38.90;23.17;;;;;;;5.37;100.00;100170.63;20951946;28;20063;-82
2022/12/20 21:51:38;;;;;;;39.95;23.70;;;;;;;5.40;100.00;100152.44;20976758;28;20505;-80
2022/12/20 22:01:39;;;;;;;38.58;24.35;;;;;;;5.38;100.00;100174.94;20945601;28;20055;-79
2022/12/20 22:11:41;;;;;;;43.05;24.30;;;;;;;5.43;100.00;100179.28;20991891;28;20066;-80
2022/12/20 22:21:42;;;;;;;36.95;23.67;;;;;;;5.47;100.00;100174.09;20986089;28;20471;-80
2022/12/20 22:31:44;;;;;;;39.22;25.23;;;;;;;5.55;100.00;100171.50;20961774;28;20048;-80
2022/12/20 22:41:45;;;;;;;41.08;25.35;;;;;;;5.54;100.00;100177.56;20956400;28;20057;-80
2022/12/20 22:51:46;;;;;;;43.92;27.25;;;;;;;5.53;100.00;100178.44;21007897;28;20049;-81
2022/12/20 23:02:06;;;;;;;48.45;27.58;;;;;;;5.49;100.00;100171.50;20953192;28;20416;-82
2022/12/20 23:22:37;;;;;;;42.42;27.15;;;;;;;5.57;100.00;100186.22;20975646;28;20051;-81
2022/12/20 23:32:38;;;;;;;36.75;24.48;;;;;;;5.53;100.00;100173.22;20962400;28;20052;-81
2022/12/20 23:42:39;;;;;;;43.65;26.70;;;;;;;5.63;100.00;100172.38;20979131;28;20057;-82
2022/12/20 23:52:41;;;;;;;38.33;24.58;;;;;;;5.71;100.00;100149.00;20934657;28;20052;-82
